Time;durP1;ratioP1;P1;durP2;ratioP2;P2;SDS_P1;SDS_P2;PMS_P1;PMS_P2;Temp;Humidity;BMP_temperature;BMP_pressure;BME280_temperature;BME280_humidity;BME280_pressure;Samples;Min_cycle;Max_cycle;Signal;HPM_P1;HPM_P2
2023/12/13 00:01:37;;;;;;;2.00;1.25;;;;;;;19.11;67.06;99564.78;5002632;28;20395;-45
2023/12/13 00:04:03;;;;;;;2.50;1.20;;;;;;;19.11;67.27;99556.53;5022494;28;20030;-41
2023/12/13 00:06:28;;;;;;;2.45;1.30;;;;;;;19.10;66.99;99552.16;5005018;28;20526;-44
2023/12/13 00:08:55;;;;;;;1.23;1.10;;;;;;;19.09;66.95;99553.28;5005482;28;20414;-42
2023/12/13 00:11:20;;;;;;;2.03;1.38;;;;;;;19.07;67.24;99544.56;5002543;28;20499;-41
2023/12/13 00:13:46;;;;;;;1.48;1.13;;;;;;;19.07;67.07;99552.81;5006568;28;20026;-41
2023/12/13 00:16:11;;;;;;;3.83;1.23;;;;;;;19.06;66.92;99545.69;4993109;28;20356;-45
2023/12/13 00:18:37;;;;;;;3.47;1.40;;;;;;;19.05;66.87;99549.56;4987652;28;20566;-41
2023/12/13 00:21:02;;;;;;;3.00;1.40;;;;;;;19.02;67.40;99537.28;4985595;28;20549;-44
2023/12/13 00:23:28;;;;;;;3.38;1.38;;;;;;;19.01;67.31;99538.41;4987615;28;20096;-44
2023/12/13 00:25:53;;;;;;;2.05;1.20;;;;;;;19.00;67.21;99545.00;4989086;28;20089;-44
2023/12/13 00:28:18;;;;;;;1.40;1.30;;;;;;;19.00;67.31;99550.50;4986173;28;20031;-40
2023/12/13 00:30:45;;;;;;;2.08;1.25;;;;;;;18.98;67.36;99551.94;4989294;28;20030;-44
2023/12/13 00:33:11;;;;;;;3.88;1.40;;;;;;;18.96;67.36;99552.25;4989111;28;20030;-45
2023/12/13 00:35:37;;;;;;;1.92;1.30;;;;;;;18.96;67.31;99548.69;4984249;28;20030;-41
2023/12/13 00:38:03;;;;;;;2.00;1.40;;;;;;;18.91;67.37;99544.97;4982219;28;20102;-40
2023/12/13 00:40:29;;;;;;;1.80;1.35;;;;;;;18.92;67.33;99548.53;4983932;28;20125;-44
2023/12/13 00:42:55;;;;;;;2.53;1.30;;;;;;;18.91;67.41;99552.41;4985415;28;20081;-42
2023/12/13 00:45:21;;;;;;;2.03;1.42;;;;;;;18.90;67.09;99554.28;4967420;28;20034;-45
2023/12/13 00:47:47;;;;;;;7.78;1.50;;;;;;;18.89;67.48;99557.34;4987954;28;20022;-46
2023/12/13 00:50:12;;;;;;;2.58;1.67;;;;;;;18.89;67.38;99557.34;4985059;28;20057;-40
2023/12/13 00:52:38;;;;;;;3.97;1.42;;;;;;;18.88;67.32;99558.47;4985437;28;20068;-41
2023/12/13 00:55:04;;;;;;;2.15;1.40;;;;;;;18.86;67.25;99558.78;4987359;28;20033;-45
2023/12/13 00:57:32;;;;;;;1.92;1.40;;;;;;;18.86;67.36;99552.47;4987011;28;20490;-42
2023/12/13 00:59:57;;;;;;;3.67;1.60;;;;;;;18.84;67.32;99543.75;4985227;28;20316;-45
2023/12/13 01:02:23;;;;;;;3.22;1.58;;;;;;;18.83;67.36;99550.38;4986485;28;20045;-46
2023/12/13 01:04:48;;;;;;;2.42;1.40;;;;;;;18.82;67.35;99540.50;4983767;28;20027;-41
2023/12/13 01:07:14;;;;;;;2.30;1.67;;;;;;;18.80;67.65;99549.06;4994878;28;20129;-45
2023/12/13 01:09:39;;;;;;;2.30;1.52;;;;;;;18.80;67.43;99548.25;5000909;28;20096;-45
2023/12/13 01:12:06;;;;;;;1.80;1.50;;;;;;;18.79;67.51;99550.19;4992846;28;20033;-42
2023/12/13 01:14:31;;;;;;;3.55;1.67;;;;;;;18.77;67.52;99546.94;4996860;28;20170;-41
2023/12/13 01:16:57;;;;;;;3.92;1.60;;;;;;;18.76;67.69;99550.81;5002700;28;20503;-44
2023/12/13 01:19:22;;;;;;;2.30;1.60;;;;;;;18.75;67.74;99543.72;5003129;28;20104;-41
2023/12/13 01:21:47;;;;;;;1.90;1.40;;;;;;;18.74;67.45;99545.63;5001920;28;20048;-45
2023/12/13 01:24:13;;;;;;;3.42;1.52;;;;;;;18.73;67.53;99544.00;4986372;28;20366;-45
2023/12/13 01:26:38;;;;;;;2.30;1.40;;;;;;;18.71;67.47;99538.03;5006282;28;20056;-43
2023/12/13 01:29:03;;;;;;;5.38;1.70;;;;;;;18.71;67.72;99545.44;5009876;28;20072;-41
2023/12/13 01:31:29;;;;;;;2.85;1.60;;;;;;;18.70;67.60;99547.38;5008981;28;20034;-45
2023/12/13 01:33:54;;;;;;;2.70;1.85;;;;;;;18.67;67.83;99556.22;5010825;28;20057;-43
2023/12/13 01:36:19;;;;;;;3.17;1.55;;;;;;;18.67;67.98;99547.19;4986696;28;20034;-41
2023/12/13 01:38:45;;;;;;;4.80;1.70;;;;;;;18.65;67.68;99550.28;5003949;28;20284;-45
2023/12/13 01:41:10;;;;;;;1.88;1.30;;;;;;;18.64;67.69;99553.31;5009054;28;20080;-45
2023/12/13 01:43:36;;;;;;;3.75;1.70;;;;;;;18.63;67.87;99546.22;5002548;28;20366;-45
2023/12/13 01:46:01;;;;;;;4.25;1.60;;;;;;;18.63;67.66;99549.75;5011441;28;20132;-45
2023/12/13 01:48:27;;;;;;;2.65;1.40;;;;;;;18.64;67.67;99553.31;5004438;28;20075;-44
2023/12/13 01:50:54;;;;;;;2.60;1.40;;;;;;;18.63;67.96;99548.97;5001356;28;20053;-45
2023/12/13 01:53:20;;;;;;;2.67;1.67;;;;;;;18.62;68.03;99552.81;5007896;28;20033;-41
2023/12/13 01:55:46;;;;;;;2.70;1.50;;;;;;;18.60;68.02;99556.69;5011338;28;20018;-44
2023/12/13 01:58:12;;;;;;;2.28;1.50;;;;;;;18.59;67.75;99546.81;5005022;28;20554;-44
2023/12/13 02:00:39;;;;;;;2.08;1.50;;;;;;;18.58;67.83;99552.63;5013442;28;20077;-41
2023/12/13 02:03:06;;;;;;;3.03;1.80;;;;;;;18.58;67.98;99553.44;4985672;28;20514;-42
2023/12/13 02:05:31;;;;;;;3.17;1.67;;;;;;;18.58;67.84;99555.38;4987516;28;20030;-41
2023/12/13 02:07:57;;;;;;;3.70;1.58;;;;;;;18.56;68.02;99552.91;4987751;28;20029;-45
2023/12/13 02:10:22;;;;;;;3.13;1.50;;;;;;;18.56;68.02;99550.19;4990544;28;20467;-44
2023/12/13 02:12:48;;;;;;;3.20;1.40;;;;;;;18.53;67.95;99550.81;5009809;28;20970;-40
2023/12/13 02:15:13;;;;;;;2.28;1.50;;;;;;;18.54;67.84;99544.22;4997111;28;20076;-40
2023/12/13 02:17:48;;;;;;;4.07;1.80;;;;;;;18.53;67.96;99552.75;5000665;28;20041;-44
2023/12/13 02:20:14;;;;;;;2.03;1.55;;;;;;;18.52;68.00;99549.19;5000416;28;20026;-42
2023/12/13 02:22:39;;;;;;;4.05;1.50;;;;;;;18.51;67.99;99552.25;5007644;28;20036;-42
2023/12/13 02:25:24;;;;;;;2.83;1.63;;;;;;;18.50;68.25;99545.94;5008952;28;20025;-41
2023/12/13 02:27:49;;;;;;;1.67;1.20;;;;;;;18.49;68.03;99547.09;4985098;28;20643;-44
2023/12/13 02:30:14;;;;;;;4.38;1.52;;;;;;;18.49;68.06;99547.09;5006986;28;20030;-45
2023/12/13 02:32:40;;;;;;;3.45;1.60;;;;;;;18.49;68.20;99543.53;5001861;28;20442;-44
2023/12/13 02:35:06;;;;;;;2.05;1.42;;;;;;;18.48;68.07;99544.63;5009158;28;21079;-45
2023/12/13 02:37:31;;;;;;;2.17;1.63;;;;;;;18.49;68.14;99546.25;5004717;28;20399;-44
2023/12/13 02:39:58;;;;;;;3.10;1.60;;;;;;;18.48;68.13;99539.97;5010398;28;20038;-41
2023/12/13 02:42:24;;;;;;;2.78;1.23;;;;;;;18.49;68.04;99546.25;5007679;28;20456;-42
2023/12/13 02:44:50;;;;;;;3.25;1.40;;;;;;;18.47;67.90;99543.84;5006682;28;20241;-44
2023/12/13 02:47:15;;;;;;;3.03;1.40;;;;;;;18.46;68.14;99539.47;4986006;28;20026;-44
2023/12/13 02:49:41;;;;;;;3.85;1.70;;;;;;;18.46;68.15;99536.72;5008493;28;20078;-39
2023/12/13 02:52:06;;;;;;;2.38;1.35;;;;;;;18.45;68.14;99535.09;5006518;28;20029;-45
2023/12/13 02:54:32;;;;;;;3.75;1.50;;;;;;;18.45;68.22;99537.84;5012797;28;20464;-44
2023/12/13 02:56:57;;;;;;;2.17;1.40;;;;;;;18.43;68.30;99540.91;5003152;28;20053;-44
2023/12/13 02:59:22;;;;;;;3.10;1.38;;;;;;;18.42;68.31;99541.22;5003643;28;20540;-40
2023/12/13 03:01:48;;;;;;;3.10;1.20;;;;;;;18.39;68.13;99537.16;4983539;28;20108;-40
2023/12/13 03:04:13;;;;;;;2.13;1.40;;;;;;;18.41;68.08;99537.66;5011517;28;20022;-44
2023/12/13 03:06:38;;;;;;;3.47;1.38;;;;;;;18.39;68.18;99542.66;5003643;28;20061;-44
2023/12/13 03:09:04;;;;;;;2.75;1.60;;;;;;;18.38;68.13;99538.28;5001702;28;20061;-41
2023/12/13 03:11:30;;;;;;;3.50;1.50;;;;;;;18.38;68.35;99541.03;4983558;28;20081;-45
2023/12/13 03:13:56;;;;;;;3.13;1.40;;;;;;;18.38;68.48;99543.78;4984521;28;20030;-45
2023/12/13 03:16:21;;;;;;;3.00;1.38;;;;;;;18.37;68.07;99538.56;4999957;28;20069;-44
2023/12/13 03:18:46;;;;;;;1.52;1.25;;;;;;;18.36;68.14;99534.25;4984248;28;20050;-45
2023/12/13 03:21:12;;;;;;;1.85;1.30;;;;;;;18.36;68.43;99542.47;4985118;28;20372;-40
2023/12/13 03:23:37;;;;;;;2.90;1.52;;;;;;;18.35;68.30;99532.59;4983709;28;20057;-39
2023/12/13 03:26:02;;;;;;;3.17;1.40;;;;;;;18.34;68.23;99531.78;4986559;28;20116;-44
2023/12/13 03:28:28;;;;;;;1.85;1.30;;;;;;;18.34;68.33;99531.78;4985511;28;20029;-44
2023/12/13 03:30:53;;;;;;;3.15;1.65;;;;;;;18.33;68.51;99538.41;4987316;28;20661;-41
2023/12/13 03:33:18;;;;;;;3.10;1.50;;;;;;;18.33;68.47;99532.94;4985902;28;20026;-45
2023/12/13 03:35:44;;;;;;;2.42;1.40;;;;;;;18.33;68.38;99529.34;4986698;28;20603;-42
2023/12/13 03:38:10;;;;;;;2.63;1.40;;;;;;;18.31;68.43;99529.69;4986533;28;20038;-40
2023/12/13 03:40:36;;;;;;;4.10;1.75;;;;;;;18.32;68.57;99527.72;4968058;28;20109;-45
2023/12/13 03:43:01;;;;;;;1.83;1.40;;;;;;;18.31;68.27;99529.69;4984424;28;20125;-40
2023/12/13 03:45:27;;;;;;;2.38;1.55;;;;;;;18.31;68.51;99520.63;4986761;28;20038;-45
2023/12/13 03:47:52;;;;;;;2.97;1.45;;;;;;;18.29;68.50;99526.44;4985699;28;20102;-45
2023/12/13 03:50:18;;;;;;;4.35;1.70;;;;;;;18.28;68.31;99516.56;4988226;28;20085;-40
2023/12/13 03:52:43;;;;;;;3.13;1.50;;;;;;;18.28;68.45;99516.56;4964562;28;20018;-42
2023/12/13 03:55:09;;;;;;;2.85;1.35;;;;;;;18.28;68.45;99525.63;4983558;28;20460;-44
2023/12/13 03:57:34;;;;;;;2.60;1.38;;;;;;;18.27;68.32;99517.69;4984633;28;20057;-45
2023/12/13 04:00:00;;;;;;;4.25;1.65;;;;;;;18.27;68.18;99526.75;4986679;28;20387;-45
2023/12/13 04:02:25;;;;;;;1.77;1.45;;;;;;;18.25;68.37;99519.94;4983245;28;20507;-44
2023/12/13 04:04:51;;;;;;;3.17;1.52;;;;;;;18.26;68.58;99516.09;4986121;28;20136;-41
2023/12/13 04:07:17;;;;;;;2.53;1.50;;;;;;;18.26;68.48;99516.09;4982348;28;20038;-40
2023/12/13 04:09:43;;;;;;;2.03;1.80;;;;;;;18.25;68.39;99517.19;4984951;28;20029;-41
2023/12/13 04:12:08;;;;;;;3.38;1.80;;;;;;;18.25;68.42;99517.19;4982886;28;20032;-42
2023/12/13 04:14:34;;;;;;;2.40;1.58;;;;;;;18.24;68.43;99516.38;4983342;28;20030;-41
2023/12/13 04:16:59;;;;;;;3.35;1.50;;;;;;;18.24;68.39;99521.06;5004186;28;20068;-40
2023/12/13 04:19:25;;;;;;;2.45;1.60;;;;;;;18.23;68.50;99517.53;5004388;28;20109;-41
2023/12/13 04:21:50;;;;;;;3.35;1.70;;;;;;;18.22;68.63;99512.31;5014426;28;20087;-45
2023/12/13 04:24:16;;;;;;;3.53;2.00;;;;;;;18.22;68.56;99515.06;5009943;28;20116;-45
2023/12/13 04:26:41;;;;;;;3.25;1.60;;;;;;;18.21;68.50;99508.78;5014171;28;20196;-45
2023/12/13 04:29:06;;;;;;;2.03;1.40;;;;;;;18.20;68.42;99509.09;5008442;28;20079;-45
2023/12/13 04:31:32;;;;;;;4.88;1.70;;;;;;;18.21;68.54;99511.53;5005674;28;20013;-45
2023/12/13 04:33:57;;;;;;;3.15;1.60;;;;;;;18.20;68.48;99512.66;5008855;28;20502;-45
2023/12/13 04:36:23;;;;;;;3.13;1.60;;;;;;;18.21;68.40;99513.44;5005545;28;20033;-42
2023/12/13 04:38:48;;;;;;;3.22;1.63;;;;;;;18.20;68.61;99514.59;5007442;28;20121;-45
2023/12/13 04:41:13;;;;;;;3.17;1.60;;;;;;;18.19;68.41;99519.25;5015173;28;20017;-41
2023/12/13 04:43:39;;;;;;;3.10;1.80;;;;;;;18.19;68.45;99513.75;5004197;28;20076;-45
2023/12/13 04:46:04;;;;;;;2.00;1.40;;;;;;;18.19;68.36;99518.44;5016323;28;20021;-46
2023/12/13 04:48:30;;;;;;;3.50;1.70;;;;;;;18.18;68.55;99520.34;5010789;28;20039;-43
2023/12/13 04:50:55;;;;;;;3.45;1.60;;;;;;;18.18;68.44;99512.13;5015604;28;20026;-44
2023/12/13 04:53:20;;;;;;;2.88;1.70;;;;;;;18.17;68.54;99513.25;5008290;28;20029;-44
2023/12/13 04:55:46;;;;;;;3.35;1.60;;;;;;;18.17;68.71;99512.44;5010872;28;20065;-42
2023/12/13 04:58:11;;;;;;;3.35;1.55;;;;;;;18.17;68.59;99516.00;5009977;28;20057;-40
2023/12/13 05:00:36;;;;;;;4.95;1.80;;;;;;;18.16;68.36;99514.41;5002412;28;20045;-41
2023/12/13 05:03:02;;;;;;;3.20;1.80;;;;;;;18.16;68.48;99505.34;5003612;28;20271;-45
2023/12/13 05:05:27;;;;;;;2.65;1.48;;;;;;;18.16;68.64;99511.66;5004459;28;20494;-41
2023/12/13 05:07:53;;;;;;;2.60;1.60;;;;;;;18.18;68.74;99511.34;5003366;28;20461;-44
2023/12/13 05:10:18;;;;;;;3.13;1.80;;;;;;;18.22;68.50;99512.31;5004112;28;20029;-42
2023/12/13 05:12:43;;;;;;;3.75;1.63;;;;;;;18.24;68.33;99499.91;5003886;28;20022;-40
2023/12/13 05:15:09;;;;;;;3.00;1.70;;;;;;;18.33;68.53;99513.72;5005632;28;20334;-41
2023/12/13 05:17:34;;;;;;;2.45;1.50;;;;;;;18.40;68.01;99514.06;5006191;28;20057;-45
2023/12/13 05:20:00;;;;;;;2.50;1.50;;;;;;;18.47;68.00;99512.81;5005833;28;20021;-44
2023/12/13 05:22:25;;;;;;;5.28;1.50;;;;;;;18.55;67.94;99506.59;5005710;28;20033;-45
2023/12/13 05:24:51;;;;;;;3.95;1.70;;;;;;;18.63;67.97;99508.59;5014429;28;20265;-45
2023/12/13 05:27:16;;;;;;;3.08;1.80;;;;;;;18.74;67.90;99506.41;5009490;28;20498;-44
2023/12/13 05:29:43;;;;;;;3.20;1.90;;;;;;;18.84;67.55;99506.13;5005997;28;20017;-45
2023/12/13 05:32:08;;;;;;;2.08;1.48;;;;;;;18.94;67.49;99507.03;4983635;28;20073;-45
2023/12/13 05:34:34;;;;;;;2.85;1.65;;;;;;;19.06;67.28;99516.28;5015170;28;20076;-44
2023/12/13 05:37:00;;;;;;;2.08;1.52;;;;;;;19.15;67.22;99519.06;4991252;28;20487;-45
2023/12/13 05:39:25;;;;;;;3.42;1.65;;;;;;;19.24;66.93;99519.94;5016362;28;20068;-45
2023/12/13 05:41:50;;;;;;;2.67;1.50;;;;;;;19.33;66.81;99519.94;5010499;28;20388;-45
2023/12/13 05:44:16;;;;;;;3.25;1.77;;;;;;;19.42;67.02;99517.22;5010994;28;20053;-45
2023/12/13 05:46:41;;;;;;;2.67;1.67;;;;;;;19.49;66.62;99520.31;5008146;28;20105;-45
2023/12/13 05:49:06;;;;;;;3.75;1.70;;;;;;;19.58;66.60;99517.59;5010202;28;20049;-44
2023/12/13 05:51:32;;;;;;;3.13;1.67;;;;;;;19.66;66.32;99522.31;5009166;28;20430;-44
2023/12/13 05:53:57;;;;;;;2.20;1.60;;;;;;;19.72;66.25;99518.28;5014395;28;20068;-45
2023/12/13 05:56:23;;;;;;;3.20;1.90;;;;;;;19.79;66.02;99522.50;5010455;28;20030;-44
2023/12/13 05:58:48;;;;;;;3.70;1.55;;;;;;;19.82;66.30;99519.91;5006936;28;20238;-44
2023/12/13 06:01:14;;;;;;;3.60;1.60;;;;;;;19.84;65.87;99520.44;5011775;28;20129;-45
2023/12/13 06:03:43;;;;;;;5.25;1.50;;;;;;;19.86;65.89;99514.63;4985078;28;20037;-44
2023/12/13 06:06:08;;;;;;;3.35;1.70;;;;;;;19.86;65.81;99509.13;4982570;28;20403;-40
2023/12/13 06:08:34;;;;;;;3.08;1.52;;;;;;;19.87;65.84;99519.78;5008558;28;20037;-42
2023/12/13 06:10:59;;;;;;;4.18;1.60;;;;;;;19.87;65.83;99519.00;5011446;28;20033;-44
2023/12/13 06:13:24;;;;;;;2.45;1.70;;;;;;;19.87;65.47;99519.00;4989676;28;20092;-42
2023/12/13 06:15:50;;;;;;;4.63;1.80;;;;;;;19.88;65.81;99515.13;5000308;28;20068;-43
2023/12/13 06:18:15;;;;;;;2.05;1.52;;;;;;;19.88;65.82;99515.91;5007555;28;20034;-43
2023/12/13 06:20:40;;;;;;;2.22;1.58;;;;;;;19.90;65.50;99521.09;5009253;28;20061;-43
2023/12/13 06:23:06;;;;;;;4.70;1.92;;;;;;;19.88;65.73;99524.16;5010828;28;20030;-44
2023/12/13 06:25:32;;;;;;;3.75;1.77;;;;;;;19.88;65.52;99518.66;5003393;28;20330;-45
2023/12/13 06:27:57;;;;;;;2.95;1.70;;;;;;;19.88;65.72;99515.13;5016445;28;20029;-43
2023/12/13 06:30:23;;;;;;;2.67;1.70;;;;;;;19.88;65.68;99523.38;4999918;28;20116;-43
2023/12/13 06:32:49;;;;;;;3.97;2.00;;;;;;;19.87;65.63;99522.53;5001989;28;20045;-42
2023/12/13 06:35:14;;;;;;;3.72;1.83;;;;;;;19.86;65.25;99529.19;4984879;28;20454;-44
2023/12/13 06:37:40;;;;;;;3.42;1.60;;;;;;;19.84;65.62;99527.88;4988476;28;20538;-45
2023/12/13 06:40:06;;;;;;;4.60;1.88;;;;;;;19.81;65.60;99531.25;5005912;28;20033;-45
2023/12/13 06:42:31;;;;;;;4.38;2.03;;;;;;;19.78;65.48;99523.63;5006899;28;20060;-44
2023/12/13 06:44:56;;;;;;;4.22;2.03;;;;;;;19.73;65.64;99521.88;5006777;28;20113;-41
2023/12/13 06:47:22;;;;;;;3.22;1.50;;;;;;;19.71;65.62;99527.66;5008246;28;20093;-42
2023/12/13 06:49:47;;;;;;;2.97;1.83;;;;;;;19.69;65.77;99523.63;4987077;28;20022;-45
2023/12/13 06:52:13;;;;;;;4.35;1.90;;;;;;;19.67;65.76;99523.16;5008144;28;20565;-45
2023/12/13 06:54:38;;;;;;;3.08;1.80;;;;;;;19.66;65.53;99527.00;5005810;28;20022;-46
2023/12/13 06:57:04;;;;;;;3.30;1.60;;;;;;;19.64;65.94;99532.81;5015979;28;20029;-42
2023/12/13 06:59:29;;;;;;;2.90;1.70;;;;;;;19.63;65.48;99522.16;5007614;28;20033;-42
2023/12/13 07:01:55;;;;;;;3.70;1.90;;;;;;;19.62;65.52;99529.59;4991217;28;20029;-42
2023/12/13 07:04:20;;;;;;;4.28;1.80;;;;;;;19.59;65.43;99530.22;5011562;28;20025;-42
2023/12/13 07:06:46;;;;;;;2.90;1.83;;;;;;;19.59;65.82;99535.72;5011212;28;20540;-45
2023/12/13 07:09:18;;;;;;;4.15;1.98;;;;;;;19.59;65.58;99532.97;5006626;28;20044;-45
2023/12/13 07:11:44;;;;;;;3.92;2.42;;;;;;;19.60;65.76;99533.78;5009732;28;20029;-45
2023/12/13 07:14:09;;;;;;;3.28;2.10;;;;;;;19.60;65.60;99533.78;5009114;28;20402;-44
2023/12/13 07:16:35;;;;;;;3.75;2.00;;;;;;;19.60;65.47;99531.84;5007348;28;20077;-43
2023/12/13 07:19:00;;;;;;;2.72;1.73;;;;;;;19.62;65.43;99537.00;5008658;28;20481;-42
2023/12/13 07:21:25;;;;;;;3.92;2.00;;;;;;;19.62;65.76;99542.50;5009635;28;20459;-42
2023/12/13 07:23:51;;;;;;;3.13;1.60;;;;;;;19.60;65.51;99539.28;5014144;28;20137;-42
2023/12/13 07:26:16;;;;;;;3.60;1.77;;;;;;;19.59;65.68;99534.91;5015491;28;20346;-44
2023/12/13 07:28:43;;;;;;;5.88;2.00;;;;;;;19.57;65.72;99540.75;5008642;28;20089;-44
2023/12/13 07:31:08;;;;;;;3.83;2.05;;;;;;;19.55;65.63;99538.28;5010844;28;20030;-44
2023/12/13 07:33:34;;;;;;;3.33;1.88;;;;;;;19.55;65.79;99543.00;5007729;28;20037;-42
2023/12/13 07:36:00;;;;;;;4.20;1.98;;;;;;;19.51;65.75;99544.72;4992862;28;20022;-46
2023/12/13 07:38:25;;;;;;;4.30;2.35;;;;;;;19.50;65.91;99552.19;5008199;28;20141;-42
2023/12/13 07:40:51;;;;;;;5.47;2.25;;;;;;;19.49;65.85;99553.31;5010946;28;20169;-44
2023/12/13 07:43:17;;;;;;;5.63;2.20;;;;;;;19.47;65.88;99555.59;5018632;28;20064;-45
2023/12/13 07:45:43;;;;;;;4.63;1.90;;;;;;;19.47;65.75;99554.75;4999141;28;20033;-45
2023/12/13 07:48:08;;;;;;;4.07;1.95;;;;;;;19.45;65.70;99565.25;5010437;28;20036;-43
2023/12/13 07:50:33;;;;;;;4.57;2.00;;;;;;;19.43;65.96;99559.28;5015105;28;20033;-41
2023/12/13 07:52:59;;;;;;;5.30;2.25;;;;;;;19.42;65.88;99563.16;5007185;28;20025;-43
2023/12/13 07:55:24;;;;;;;4.75;2.10;;;;;;;19.39;66.01;99568.13;5010151;28;20116;-45
2023/12/13 07:57:50;;;;;;;3.75;2.20;;;;;;;19.38;66.01;99571.22;5013402;28;20030;-42
2023/12/13 08:00:16;;;;;;;3.95;2.10;;;;;;;19.36;65.91;99571.53;5007528;28;20029;-42
2023/12/13 08:02:41;;;;;;;4.53;2.25;;;;;;;19.33;65.89;99577.66;5018251;28;20037;-42
2023/12/13 08:05:07;;;;;;;5.57;2.35;;;;;;;19.32;66.18;99569.72;5014766;28;20475;-45
2023/12/13 08:07:34;;;;;;;9.85;2.47;;;;;;;19.31;66.06;99571.69;5013774;28;20466;-44
2023/12/13 08:09:59;;;;;;;4.78;2.50;;;;;;;19.29;66.00;99573.09;5013977;28;20387;-44
2023/12/13 08:12:27;;;;;;;3.20;2.08;;;;;;;19.28;66.08;99575.03;5010645;28;20068;-45
2023/12/13 08:14:53;;;;;;;3.70;2.08;;;;;;;19.28;66.10;99577.00;5010132;28;20034;-46
2023/12/13 08:17:18;;;;;;;4.28;2.13;;;;;;;19.25;66.42;99572.91;5017300;28;20402;-45
2023/12/13 08:19:44;;;;;;;4.72;2.10;;;;;;;19.24;66.06;99580.34;5007792;28;20018;-44
2023/12/13 08:22:09;;;;;;;3.83;2.25;;;;;;;19.23;66.45;99583.44;5009918;28;20053;-41
2023/12/13 08:24:35;;;;;;;4.13;2.10;;;;;;;19.21;66.37;99583.75;5013384;28;20029;-45
2023/12/13 08:27:00;;;;;;;4.18;2.40;;;;;;;19.20;66.23;99587.63;4988003;28;20088;-43
2023/12/13 08:29:26;;;;;;;5.32;2.22;;;;;;;19.19;66.40;99582.41;4994730;28;20462;-43
2023/12/13 08:31:51;;;;;;;4.68;2.38;;;;;;;19.17;66.41;99588.22;4997472;28;20057;-42
2023/12/13 08:34:16;;;;;;;5.15;2.45;;;;;;;19.16;66.14;99585.81;5008345;28;20136;-42
2023/12/13 08:36:42;;;;;;;8.25;2.20;;;;;;;19.15;66.36;99590.47;5003658;28;20034;-46
2023/12/13 08:39:09;;;;;;;5.40;2.20;;;;;;;19.14;66.18;99597.13;5006608;28;20104;-46
2023/12/13 08:41:35;;;;;;;5.18;2.15;;;;;;;19.12;66.45;99591.13;4997243;28;20108;-45
2023/12/13 08:44:00;;;;;;;5.20;2.20;;;;;;;19.11;66.34;99596.94;5009864;28;20034;-41
2023/12/13 08:46:25;;;;;;;5.68;2.47;;;;;;;19.11;66.12;99596.94;5001720;28;20041;-43
2023/12/13 08:48:51;;;;;;;5.00;2.20;;;;;;;19.10;66.56;99598.06;5007865;28;20030;-40
2023/12/13 08:51:16;;;;;;;4.30;2.33;;;;;;;19.10;66.55;99598.06;4999970;28;20430;-43
2023/12/13 08:53:42;;;;;;;5.65;2.22;;;;;;;19.11;66.46;99599.69;4997220;28;20534;-40
2023/12/13 08:56:09;;;;;;;7.22;2.70;;;;;;;19.10;66.35;99601.59;5003900;28;20071;-45
2023/12/13 08:58:34;;;;;;;5.78;2.22;;;;;;;19.10;66.46;99603.53;5008719;28;20026;-43
2023/12/13 09:01:00;;;;;;;4.22;2.10;;;;;;;19.10;66.21;99609.03;5009969;28;20030;-46
2023/12/13 09:03:27;;;;;;;4.65;2.35;;;;;;;19.08;66.49;99612.91;5005104;28;20030;-45
2023/12/13 09:05:53;;;;;;;4.50;2.33;;;;;;;19.07;66.57;99610.47;4998577;28;20366;-45
2023/12/13 09:08:18;;;;;;;6.53;2.70;;;;;;;19.04;66.40;99620.16;4995181;28;20028;-42
2023/12/13 09:10:44;;;;;;;5.55;2.50;;;;;;;19.03;66.57;99618.53;5007493;28;20549;-41
2023/12/13 09:13:09;;;;;;;5.60;2.47;;;;;;;19.02;66.45;99618.84;5001402;28;20057;-44
2023/12/13 09:15:35;;;;;;;4.53;2.33;;;;;;;19.00;66.53;99623.84;5003089;28;20113;-45
2023/12/13 09:18:00;;;;;;;5.78;2.58;;;;;;;18.98;66.60;99624.16;5011827;28;20388;-42
2023/12/13 09:20:26;;;;;;;3.50;2.17;;;;;;;18.96;66.66;99626.38;4996292;28;20030;-44
2023/12/13 09:22:51;;;;;;;4.82;2.25;;;;;;;18.96;66.53;99623.66;5006512;28;20025;-42
2023/12/13 09:25:17;;;;;;;6.22;2.50;;;;;;;18.93;66.82;99624.25;5009049;28;20026;-45
2023/12/13 09:27:43;;;;;;;4.47;2.58;;;;;;;18.94;66.60;99628.63;5011180;28;20132;-44
2023/12/13 09:30:09;;;;;;;6.13;2.65;;;;;;;18.91;66.84;99635.56;5004184;28;20014;-43
2023/12/13 09:32:35;;;;;;;15.63;2.58;;;;;;;18.93;67.35;99632.50;5007433;28;20441;-44
2023/12/13 09:35:00;;;;;;;49.88;4.22;;;;;;;18.96;67.70;99634.63;5008569;28;20236;-41
2023/12/13 09:37:25;;;;;;;21.00;3.20;;;;;;;19.00;67.97;99632.06;5004420;28;20032;-36
2023/12/13 09:39:52;;;;;;;20.13;3.40;;;;;;;19.04;68.43;99639.38;5002996;28;20481;-44
2023/12/13 09:42:17;;;;;;;14.38;3.65;;;;;;;19.07;68.25;99641.47;5011860;28;20088;-45
2023/12/13 09:44:44;;;;;;;12.35;3.13;;;;;;;19.14;68.33;99645.72;5012459;28;20029;-44
2023/12/13 09:47:10;;;;;;;9.05;2.70;;;;;;;19.19;67.88;99645.59;5007153;28;20025;-44
2023/12/13 09:49:37;;;;;;;11.93;3.22;;;;;;;19.27;67.81;99644.03;4995656;28;20093;-45
2023/12/13 09:52:06;;;;;;;13.80;3.15;;;;;;;19.33;67.99;99651.81;5010563;28;20059;-44
2023/12/13 09:54:31;;;;;;;8.93;3.03;;;;;;;19.38;67.57;99654.44;5009244;28;20442;-40
2023/12/13 09:56:57;;;;;;;9.00;3.00;;;;;;;19.46;67.27;99652.03;5010075;28;20044;-36
2023/12/13 09:59:24;;;;;;;8.27;3.10;;;;;;;19.53;67.04;99658.72;4985915;28;20042;-44
2023/12/13 10:01:49;;;;;;;7.65;2.80;;;;;;;19.58;66.86;99662.47;5015264;28;20034;-39
2023/12/13 10:04:16;;;;;;;8.95;2.83;;;;;;;19.63;66.92;99670.56;5014769;28;20049;-44
2023/12/13 10:06:41;;;;;;;5.38;3.00;;;;;;;19.65;66.97;99669.13;5017251;28;20071;-44
2023/12/13 10:09:07;;;;;;;7.45;3.00;;;;;;;19.67;67.09;99663.31;5001952;28;20029;-42
2023/12/13 10:11:33;;;;;;;10.52;2.83;;;;;;;19.71;66.79;99667.06;5001119;28;20030;-44
2023/12/13 10:13:59;;;;;;;7.15;3.00;;;;;;;19.75;66.73;99672.72;4983537;28;20438;-37
2023/12/13 10:16:27;;;;;;;7.35;2.97;;;;;;;19.79;66.53;99670.97;5010276;28;20049;-38
2023/12/13 10:18:52;;;;;;;7.50;2.75;;;;;;;19.84;66.51;99679.09;4981037;28;20038;-37
2023/12/13 10:21:18;;;;;;;4.88;3.00;;;;;;;19.88;66.32;99685.59;5003318;28;20037;-39
2023/12/13 10:23:44;;;;;;;5.45;2.55;;;;;;;19.92;66.01;99678.31;5004731;28;20361;-38
2023/12/13 10:26:12;;;;;;;7.55;2.90;;;;;;;19.96;66.00;99686.75;4980587;28;20044;-44
2023/12/13 10:28:37;;;;;;;4.93;2.70;;;;;;;19.99;65.89;99684.16;5005989;28;20040;-33
2023/12/13 10:31:03;;;;;;;7.95;3.17;;;;;;;20.02;65.76;99690.97;5003164;28;20029;-34
2023/12/13 10:33:29;;;;;;;11.23;3.80;;;;;;;20.05;65.95;99687.59;5004121;28;20389;-42
2023/12/13 10:35:54;;;;;;;4.85;2.70;;;;;;;20.07;65.61;99690.81;4981744;28;20108;-41
2023/12/13 10:38:23;;;;;;;8.80;3.17;;;;;;;20.11;65.82;99691.00;4990352;28;20034;-45
2023/12/13 10:40:49;;;;;;;6.25;2.80;;;;;;;20.12;65.62;99687.13;4983892;28;20030;-44
2023/12/13 10:43:15;;;;;;;5.88;3.17;;;;;;;20.15;65.57;99692.00;4996388;28;20109;-45
2023/12/13 10:45:45;;;;;;;9.95;3.15;;;;;;;20.16;65.59;99694.41;5004089;28;20113;-45
2023/12/13 10:48:12;;;;;;;5.53;3.20;;;;;;;20.19;65.42;99695.72;5007971;28;20029;-45
2023/12/13 10:50:38;;;;;;;6.95;3.00;;;;;;;20.19;65.49;99695.72;4983953;28;20034;-45
2023/12/13 10:53:04;;;;;;;5.72;3.15;;;;;;;20.20;65.33;99698.16;5011533;28;20259;-43
2023/12/13 10:55:30;;;;;;;6.07;3.45;;;;;;;20.22;65.64;99694.25;5006227;28;20037;-44
2023/12/13 10:57:56;;;;;;;5.93;3.40;;;;;;;20.23;65.49;99699.44;5004925;28;20033;-44
2023/12/13 11:00:25;;;;;;;6.90;3.30;;;;;;;20.23;65.50;99702.19;5006262;28;20391;-41
2023/12/13 11:03:02;;;;;;;6.05;2.90;;;;;;;20.24;65.35;99694.78;4988892;28;20053;-41
2023/12/13 11:05:27;;;;;;;5.38;2.92;;;;;;;20.26;65.49;99698.81;4966356;28;20040;-45
2023/12/13 11:07:53;;;;;;;6.07;3.05;;;;;;;20.27;65.52;99705.94;5006611;28;20033;-43
2023/12/13 11:10:18;;;;;;;4.93;3.03;;;;;;;20.28;65.52;99706.75;5012260;28;20028;-43
2023/12/13 11:12:49;;;;;;;6.90;3.22;;;;;;;20.28;65.52;99709.50;5005556;28;20048;-44
2023/12/13 11:15:15;;;;;;;7.10;3.58;;;;;;;20.28;65.31;99709.50;4985756;28;20053;-44
2023/12/13 11:17:46;;;;;;;9.70;3.40;;;;;;;20.27;65.19;99710.63;4996978;28;20081;-44
2023/12/13 11:20:13;;;;;;;8.57;3.30;;;;;;;20.28;65.57;99717.75;5008901;28;20034;-45
2023/12/13 11:22:42;;;;;;;8.00;3.25;;;;;;;20.28;65.31;99717.75;5007593;28;20403;-42
2023/12/13 11:25:07;;;;;;;7.40;3.28;;;;;;;20.29;65.21;99717.41;5005175;28;20525;-43
2023/12/13 11:27:33;;;;;;;6.57;3.35;;;;;;;20.31;65.48;99722.63;5006250;28;20030;-39